sensor_id;sensor_type;location;lat;lon;timestamp;P1;durP1;ratioP1;P2;durP2;ratioP2
25615;SDS011;13482;48.234;13.006;2023-08-31T00:01:47;2.72;;;0.88;;
25615;SDS011;13482;48.234;13.006;2023-08-31T00:04:15;0.90;;;0.57;;
25615;SDS011;13482;48.234;13.006;2023-08-31T00:06:42;1.02;;;0.80;;
25615;SDS011;13482;48.234;13.006;2023-08-31T00:09:12;1.00;;;0.60;;
25615;SDS011;13482;48.234;13.006;2023-08-31T00:11:39;0.60;;;0.50;;
25615;SDS011;13482;48.234;13.006;2023-08-31T00:14:07;1.00;;;0.57;;
25615;SDS011;13482;48.234;13.006;2023-08-31T00:16:34;0.75;;;0.50;;
25615;SDS011;13482;48.234;13.006;2023-08-31T00:19:03;0.63;;;0.50;;
25615;SDS011;13482;48.234;13.006;2023-08-31T00:21:31;0.45;;;0.43;;
25615;SDS011;13482;48.234;13.006;2023-08-31T00:23:58;1.00;;;0.50;;
25615;SDS011;13482;48.234;13.006;2023-08-31T00:26:29;0.77;;;0.60;;
25615;SDS011;13482;48.234;13.006;2023-08-31T00:28:57;2.05;;;0.65;;
25615;SDS011;13482;48.234;13.006;2023-08-31T00:31:24;0.80;;;0.60;;
25615;SDS011;13482;48.234;13.006;2023-08-31T00:33:54;0.95;;;0.80;;
25615;SDS011;13482;48.234;13.006;2023-08-31T00:36:22;2.50;;;0.95;;
25615;SDS011;13482;48.234;13.006;2023-08-31T00:38:49;1.77;;;0.80;;
25615;SDS011;13482;48.234;13.006;2023-08-31T00:41:16;1.48;;;0.82;;
25615;SDS011;13482;48.234;13.006;2023-08-31T00:43:44;1.45;;;0.70;;
25615;SDS011;13482;48.234;13.006;2023-08-31T00:46:11;1.00;;;0.82;;
25615;SDS011;13482;48.234;13.006;2023-08-31T00:48:41;2.75;;;0.70;;
25615;SDS011;13482;48.234;13.006;2023-08-31T00:51:08;1.40;;;0.90;;
25615;SDS011;13482;48.234;13.006;2023-08-31T00:53:37;1.17;;;0.88;;
25615;SDS011;13482;48.234;13.006;2023-08-31T00:56:05;1.20;;;0.85;;
25615;SDS011;13482;48.234;13.006;2023-08-31T00:58:33;1.50;;;0.90;;
25615;SDS011;13482;48.234;13.006;2023-08-31T01:13:15;1.35;;;0.90;;
25615;SDS011;13482;48.234;13.006;2023-08-31T01:15:50;1.05;;;0.77;;
25615;SDS011;13482;48.234;13.006;2023-08-31T01:18:21;1.00;;;0.90;;
25615;SDS011;13482;48.234;13.006;2023-08-31T01:23:31;0.80;;;0.68;;
25615;SDS011;13482;48.234;13.006;2023-08-31T01:26:21;0.98;;;0.70;;
25615;SDS011;13482;48.234;13.006;2023-08-31T01:28:51;1.85;;;0.90;;
25615;SDS011;13482;48.234;13.006;2023-08-31T01:31:19;1.63;;;1.02;;
25615;SDS011;13482;48.234;13.006;2023-08-31T01:33:47;1.10;;;0.80;;
25615;SDS011;13482;48.234;13.006;2023-08-31T01:36:20;1.45;;;0.82;;
25615;SDS011;13482;48.234;13.006;2023-08-31T01:39:02;1.38;;;0.90;;
25615;SDS011;13482;48.234;13.006;2023-08-31T01:41:34;1.70;;;0.70;;
25615;SDS011;13482;48.234;13.006;2023-08-31T01:44:03;1.10;;;0.70;;
25615;SDS011;13482;48.234;13.006;2023-08-31T01:46:32;1.38;;;1.00;;
25615;SDS011;13482;48.234;13.006;2023-08-31T01:49:01;1.40;;;0.88;;
25615;SDS011;13482;48.234;13.006;2023-08-31T01:51:33;1.38;;;0.80;;
25615;SDS011;13482;48.234;13.006;2023-08-31T01:54:01;1.08;;;0.85;;
25615;SDS011;13482;48.234;13.006;2023-08-31T01:56:29;1.98;;;0.70;;
25615;SDS011;13482;48.234;13.006;2023-08-31T01:58:56;0.95;;;0.70;;
25615;SDS011;13482;48.234;13.006;2023-08-31T02:01:24;0.80;;;0.80;;
25615;SDS011;13482;48.234;13.006;2023-08-31T02:03:51;0.60;;;0.52;;
25615;SDS011;13482;48.234;13.006;2023-08-31T02:06:19;1.17;;;0.70;;
25615;SDS011;13482;48.234;13.006;2023-08-31T02:08:46;0.93;;;0.70;;
25615;SDS011;13482;48.234;13.006;2023-08-31T02:11:14;0.80;;;0.63;;
25615;SDS011;13482;48.234;13.006;2023-08-31T02:13:41;0.95;;;0.70;;
25615;SDS011;13482;48.234;13.006;2023-08-31T02:16:09;1.15;;;0.80;;
25615;SDS011;13482;48.234;13.006;2023-08-31T02:18:36;0.95;;;0.70;;
25615;SDS011;13482;48.234;13.006;2023-08-31T02:21:04;1.80;;;0.70;;
25615;SDS011;13482;48.234;13.006;2023-08-31T02:23:34;1.40;;;0.70;;
25615;SDS011;13482;48.234;13.006;2023-08-31T02:26:01;0.90;;;0.70;;
25615;SDS011;13482;48.234;13.006;2023-08-31T02:28:28;2.15;;;0.90;;
25615;SDS011;13482;48.234;13.006;2023-08-31T02:31:00;1.30;;;0.80;;
25615;SDS011;13482;48.234;13.006;2023-08-31T02:33:30;1.00;;;0.80;;
25615;SDS011;13482;48.234;13.006;2023-08-31T02:35:58;0.80;;;0.60;;
25615;SDS011;13482;48.234;13.006;2023-08-31T02:38:25;1.20;;;0.80;;
25615;SDS011;13482;48.234;13.006;2023-08-31T02:40:52;1.25;;;0.80;;
25615;SDS011;13482;48.234;13.006;2023-08-31T02:43:20;0.80;;;0.70;;
25615;SDS011;13482;48.234;13.006;2023-08-31T02:45:48;1.05;;;0.75;;
25615;SDS011;13482;48.234;13.006;2023-08-31T02:48:15;1.08;;;0.80;;
25615;SDS011;13482;48.234;13.006;2023-08-31T02:50:43;1.17;;;0.77;;
25615;SDS011;13482;48.234;13.006;2023-08-31T02:53:11;1.17;;;0.75;;
25615;SDS011;13482;48.234;13.006;2023-08-31T02:55:41;1.40;;;0.82;;
25615;SDS011;13482;48.234;13.006;2023-08-31T02:58:09;0.80;;;0.60;;
25615;SDS011;13482;48.234;13.006;2023-08-31T03:00:36;1.10;;;0.68;;
25615;SDS011;13482;48.234;13.006;2023-08-31T03:03:09;1.15;;;0.80;;
25615;SDS011;13482;48.234;13.006;2023-08-31T03:05:37;1.20;;;0.70;;
25615;SDS011;13482;48.234;13.006;2023-08-31T03:08:05;1.00;;;0.60;;
25615;SDS011;13482;48.234;13.006;2023-08-31T03:10:32;1.33;;;0.90;;
25615;SDS011;13482;48.234;13.006;2023-08-31T03:12:59;1.00;;;0.77;;
25615;SDS011;13482;48.234;13.006;2023-08-31T03:15:27;2.22;;;0.90;;
25615;SDS011;13482;48.234;13.006;2023-08-31T03:17:54;1.27;;;0.70;;
25615;SDS011;13482;48.234;13.006;2023-08-31T03:20:23;0.98;;;0.70;;
25615;SDS011;13482;48.234;13.006;2023-08-31T03:22:50;1.10;;;0.75;;
25615;SDS011;13482;48.234;13.006;2023-08-31T03:25:18;0.75;;;0.68;;
25615;SDS011;13482;48.234;13.006;2023-08-31T03:27:45;1.67;;;0.90;;
25615;SDS011;13482;48.234;13.006;2023-08-31T03:30:13;1.02;;;0.80;;
25615;SDS011;13482;48.234;13.006;2023-08-31T03:32:40;0.90;;;0.65;;
25615;SDS011;13482;48.234;13.006;2023-08-31T03:35:09;1.60;;;0.85;;
25615;SDS011;13482;48.234;13.006;2023-08-31T03:37:37;1.20;;;0.65;;
25615;SDS011;13482;48.234;13.006;2023-08-31T03:40:04;1.13;;;0.70;;
25615;SDS011;13482;48.234;13.006;2023-08-31T03:42:34;0.98;;;0.75;;
25615;SDS011;13482;48.234;13.006;2023-08-31T03:45:01;1.13;;;0.80;;
25615;SDS011;13482;48.234;13.006;2023-08-31T03:47:30;3.15;;;0.70;;
25615;SDS011;13482;48.234;13.006;2023-08-31T03:49:57;1.08;;;0.68;;
25615;SDS011;13482;48.234;13.006;2023-08-31T03:52:25;1.15;;;0.88;;
25615;SDS011;13482;48.234;13.006;2023-08-31T03:54:52;1.15;;;0.90;;
25615;SDS011;13482;48.234;13.006;2023-08-31T03:57:19;1.35;;;0.60;;
25615;SDS011;13482;48.234;13.006;2023-08-31T03:59:47;0.98;;;0.70;;
25615;SDS011;13482;48.234;13.006;2023-08-31T04:02:14;1.02;;;0.70;;
25615;SDS011;13482;48.234;13.006;2023-08-31T04:04:42;1.17;;;0.70;;
25615;SDS011;13482;48.234;13.006;2023-08-31T04:07:10;1.63;;;0.95;;
25615;SDS011;13482;48.234;13.006;2023-08-31T04:09:37;1.15;;;0.77;;
25615;SDS011;13482;48.234;13.006;2023-08-31T04:12:04;1.20;;;0.77;;
25615;SDS011;13482;48.234;13.006;2023-08-31T04:14:32;0.90;;;0.70;;
25615;SDS011;13482;48.234;13.006;2023-08-31T04:17:00;0.77;;;0.70;;
25615;SDS011;13482;48.234;13.006;2023-08-31T04:19:27;1.02;;;0.73;;
25615;SDS011;13482;48.234;13.006;2023-08-31T04:21:55;1.08;;;0.80;;
25615;SDS011;13482;48.234;13.006;2023-08-31T04:24:22;1.00;;;0.70;;
25615;SDS011;13482;48.234;13.006;2023-08-31T04:26:49;1.20;;;0.80;;
25615;SDS011;13482;48.234;13.006;2023-08-31T04:29:20;1.20;;;0.80;;
25615;SDS011;13482;48.234;13.006;2023-08-31T04:31:48;1.05;;;0.80;;
25615;SDS011;13482;48.234;13.006;2023-08-31T04:34:15;1.95;;;0.98;;
25615;SDS011;13482;48.234;13.006;2023-08-31T04:36:43;0.93;;;0.77;;
25615;SDS011;13482;48.234;13.006;2023-08-31T04:39:10;1.67;;;0.98;;
25615;SDS011;13482;48.234;13.006;2023-08-31T04:41:38;1.35;;;0.90;;
25615;SDS011;13482;48.234;13.006;2023-08-31T04:44:05;1.20;;;0.90;;
25615;SDS011;13482;48.234;13.006;2023-08-31T04:46:33;1.10;;;0.90;;
25615;SDS011;13482;48.234;13.006;2023-08-31T04:49:00;1.30;;;0.88;;
25615;SDS011;13482;48.234;13.006;2023-08-31T04:51:28;1.40;;;0.82;;
25615;SDS011;13482;48.234;13.006;2023-08-31T04:53:56;1.27;;;0.90;;
25615;SDS011;13482;48.234;13.006;2023-08-31T04:56:26;0.80;;;0.73;;
25615;SDS011;13482;48.234;13.006;2023-08-31T04:58:59;1.60;;;0.95;;
25615;SDS011;13482;48.234;13.006;2023-08-31T05:01:29;1.50;;;0.90;;
25615;SDS011;13482;48.234;13.006;2023-08-31T05:03:57;1.20;;;0.80;;
25615;SDS011;13482;48.234;13.006;2023-08-31T05:06:24;2.17;;;1.23;;
25615;SDS011;13482;48.234;13.006;2023-08-31T05:08:51;1.73;;;1.10;;
25615;SDS011;13482;48.234;13.006;2023-08-31T05:11:19;1.58;;;1.00;;
25615;SDS011;13482;48.234;13.006;2023-08-31T05:13:46;1.25;;;1.00;;
25615;SDS011;13482;48.234;13.006;2023-08-31T05:16:15;1.50;;;0.88;;
25615;SDS011;13482;48.234;13.006;2023-08-31T05:18:42;1.25;;;0.82;;
25615;SDS011;13482;48.234;13.006;2023-08-31T05:21:09;3.03;;;1.27;;
25615;SDS011;13482;48.234;13.006;2023-08-31T05:23:37;1.70;;;1.10;;
25615;SDS011;13482;48.234;13.006;2023-08-31T05:26:04;1.27;;;0.98;;
25615;SDS011;13482;48.234;13.006;2023-08-31T05:28:32;1.88;;;1.15;;
25615;SDS011;13482;48.234;13.006;2023-08-31T05:31:00;1.80;;;1.17;;
25615;SDS011;13482;48.234;13.006;2023-08-31T05:33:29;1.60;;;1.05;;
25615;SDS011;13482;48.234;13.006;2023-08-31T05:36:01;1.65;;;1.10;;
25615;SDS011;13482;48.234;13.006;2023-08-31T05:38:32;2.08;;;1.40;;
25615;SDS011;13482;48.234;13.006;2023-08-31T05:41:07;1.67;;;1.20;;
25615;SDS011;13482;48.234;13.006;2023-08-31T05:43:36;1.52;;;1.10;;
25615;SDS011;13482;48.234;13.006;2023-08-31T05:46:07;2.85;;;1.17;;
25615;SDS011;13482;48.234;13.006;2023-08-31T05:48:36;1.50;;;1.00;;
25615;SDS011;13482;48.234;13.006;2023-08-31T05:51:04;1.80;;;1.10;;
25615;SDS011;13482;48.234;13.006;2023-08-31T05:53:31;2.47;;;1.25;;
25615;SDS011;13482;48.234;13.006;2023-08-31T05:55:59;2.35;;;1.15;;
25615;SDS011;13482;48.234;13.006;2023-08-31T05:58:34;1.65;;;1.10;;
25615;SDS011;13482;48.234;13.006;2023-08-31T06:01:05;2.15;;;1.05;;
25615;SDS011;13482;48.234;13.006;2023-08-31T06:03:33;1.73;;;1.20;;
25615;SDS011;13482;48.234;13.006;2023-08-31T06:06:02;1.55;;;1.00;;
25615;SDS011;13482;48.234;13.006;2023-08-31T06:08:30;1.58;;;1.00;;
25615;SDS011;13482;48.234;13.006;2023-08-31T06:10:57;1.63;;;1.00;;
25615;SDS011;13482;48.234;13.006;2023-08-31T06:13:25;1.27;;;0.98;;
25615;SDS011;13482;48.234;13.006;2023-08-31T06:15:52;2.53;;;1.00;;
25615;SDS011;13482;48.234;13.006;2023-08-31T06:18:22;2.72;;;1.05;;
25615;SDS011;13482;48.234;13.006;2023-08-31T06:20:50;1.50;;;1.20;;
25615;SDS011;13482;48.234;13.006;2023-08-31T06:23:17;1.60;;;1.00;;
25615;SDS011;13482;48.234;13.006;2023-08-31T06:25:45;1.55;;;0.95;;
25615;SDS011;13482;48.234;13.006;2023-08-31T06:28:12;3.17;;;1.10;;
25615;SDS011;13482;48.234;13.006;2023-08-31T06:30:40;1.83;;;1.05;;
25615;SDS011;13482;48.234;13.006;2023-08-31T06:33:13;1.35;;;1.00;;
25615;SDS011;13482;48.234;13.006;2023-08-31T06:35:42;1.35;;;0.93;;
25615;SDS011;13482;48.234;13.006;2023-08-31T06:38:09;1.27;;;0.90;;
25615;SDS011;13482;48.234;13.006;2023-08-31T06:40:37;1.85;;;1.30;;
25615;SDS011;13482;48.234;13.006;2023-08-31T06:43:04;1.88;;;1.17;;
25615;SDS011;13482;48.234;13.006;2023-08-31T06:45:32;1.95;;;1.27;;
25615;SDS011;13482;48.234;13.006;2023-08-31T06:48:00;1.23;;;0.90;;
25615;SDS011;13482;48.234;13.006;2023-08-31T06:50:29;1.58;;;1.20;;
25615;SDS011;13482;48.234;13.006;2023-08-31T06:52:56;1.63;;;1.10;;
25615;SDS011;13482;48.234;13.006;2023-08-31T06:55:24;1.50;;;1.20;;
25615;SDS011;13482;48.234;13.006;2023-08-31T06:57:52;2.22;;;1.20;;
25615;SDS011;13482;48.234;13.006;2023-08-31T07:00:24;1.40;;;0.98;;
25615;SDS011;13482;48.234;13.006;2023-08-31T07:02:52;1.63;;;1.00;;
25615;SDS011;13482;48.234;13.006;2023-08-31T07:05:24;1.48;;;1.00;;
25615;SDS011;13482;48.234;13.006;2023-08-31T07:07:53;1.70;;;1.08;;
25615;SDS011;13482;48.234;13.006;2023-08-31T07:10:21;1.85;;;1.27;;
25615;SDS011;13482;48.234;13.006;2023-08-31T07:12:50;2.22;;;1.00;;
25615;SDS011;13482;48.234;13.006;2023-08-31T07:15:17;1.60;;;1.10;;
25615;SDS011;13482;48.234;13.006;2023-08-31T07:17:45;3.17;;;1.27;;
25615;SDS011;13482;48.234;13.006;2023-08-31T07:20:12;2.22;;;1.27;;
25615;SDS011;13482;48.234;13.006;2023-08-31T07:22:40;1.88;;;1.20;;
25615;SDS011;13482;48.234;13.006;2023-08-31T07:25:07;1.88;;;1.30;;
25615;SDS011;13482;48.234;13.006;2023-08-31T07:27:35;2.33;;;1.20;;
25615;SDS011;13482;48.234;13.006;2023-08-31T07:30:03;2.78;;;1.45;;
25615;SDS011;13482;48.234;13.006;2023-08-31T07:32:32;1.70;;;1.30;;
25615;SDS011;13482;48.234;13.006;2023-08-31T07:34:59;2.20;;;1.30;;
25615;SDS011;13482;48.234;13.006;2023-08-31T07:37:27;1.67;;;1.23;;
25615;SDS011;13482;48.234;13.006;2023-08-31T07:39:54;1.63;;;1.15;;
25615;SDS011;13482;48.234;13.006;2023-08-31T07:42:22;1.85;;;1.20;;
25615;SDS011;13482;48.234;13.006;2023-08-31T07:44:49;1.67;;;1.10;;
25615;SDS011;13482;48.234;13.006;2023-08-31T07:47:16;2.00;;;1.20;;
25615;SDS011;13482;48.234;13.006;2023-08-31T07:49:44;1.70;;;1.08;;
25615;SDS011;13482;48.234;13.006;2023-08-31T07:52:11;1.88;;;1.25;;
25615;SDS011;13482;48.234;13.006;2023-08-31T07:54:39;1.80;;;1.23;;
25615;SDS011;13482;48.234;13.006;2023-08-31T07:57:06;1.58;;;1.20;;
25615;SDS011;13482;48.234;13.006;2023-08-31T07:59:34;1.52;;;1.00;;
25615;SDS011;13482;48.234;13.006;2023-08-31T08:02:01;1.83;;;1.13;;
25615;SDS011;13482;48.234;13.006;2023-08-31T08:04:29;1.75;;;1.00;;
25615;SDS011;13482;48.234;13.006;2023-08-31T08:06:56;1.48;;;1.00;;
25615;SDS011;13482;48.234;13.006;2023-08-31T08:09:24;1.48;;;1.08;;
25615;SDS011;13482;48.234;13.006;2023-08-31T08:11:51;1.85;;;1.20;;
25615;SDS011;13482;48.234;13.006;2023-08-31T08:14:19;1.40;;;1.10;;
25615;SDS011;13482;48.234;13.006;2023-08-31T08:16:46;2.05;;;1.30;;
25615;SDS011;13482;48.234;13.006;2023-08-31T08:19:13;1.40;;;0.88;;
25615;SDS011;13482;48.234;13.006;2023-08-31T08:21:50;1.50;;;1.05;;
25615;SDS011;13482;48.234;13.006;2023-08-31T08:24:18;2.00;;;1.20;;
25615;SDS011;13482;48.234;13.006;2023-08-31T08:26:45;2.15;;;1.23;;
25615;SDS011;13482;48.234;13.006;2023-08-31T08:29:13;1.48;;;0.90;;
25615;SDS011;13482;48.234;13.006;2023-08-31T08:31:41;1.45;;;1.08;;
25615;SDS011;13482;48.234;13.006;2023-08-31T08:34:09;1.27;;;0.73;;
25615;SDS011;13482;48.234;13.006;2023-08-31T08:36:36;1.73;;;0.90;;
25615;SDS011;13482;48.234;13.006;2023-08-31T08:39:03;1.48;;;0.82;;
25615;SDS011;13482;48.234;13.006;2023-08-31T08:41:32;1.58;;;0.90;;
25615;SDS011;13482;48.234;13.006;2023-08-31T08:44:01;1.25;;;0.90;;
25615;SDS011;13482;48.234;13.006;2023-08-31T08:46:33;1.60;;;0.90;;
25615;SDS011;13482;48.234;13.006;2023-08-31T08:49:01;2.08;;;1.27;;
25615;SDS011;13482;48.234;13.006;2023-08-31T08:51:30;2.13;;;1.10;;
25615;SDS011;13482;48.234;13.006;2023-08-31T08:53:59;1.80;;;1.00;;
25615;SDS011;13482;48.234;13.006;2023-08-31T08:56:27;1.35;;;0.93;;
25615;SDS011;13482;48.234;13.006;2023-08-31T08:58:54;1.90;;;0.90;;
25615;SDS011;13482;48.234;13.006;2023-08-31T09:01:22;2.03;;;0.95;;
25615;SDS011;13482;48.234;13.006;2023-08-31T09:03:51;1.83;;;1.30;;
25615;SDS011;13482;48.234;13.006;2023-08-31T09:06:19;1.60;;;0.90;;
25615;SDS011;13482;48.234;13.006;2023-08-31T09:08:53;1.25;;;1.00;;
25615;SDS011;13482;48.234;13.006;2023-08-31T09:11:23;1.92;;;0.90;;
25615;SDS011;13482;48.234;13.006;2023-08-31T09:13:51;1.80;;;1.05;;
25615;SDS011;13482;48.234;13.006;2023-08-31T09:18:56;1.70;;;1.02;;
25615;SDS011;13482;48.234;13.006;2023-08-31T09:21:36;1.65;;;0.85;;
25615;SDS011;13482;48.234;13.006;2023-08-31T09:24:07;1.35;;;0.85;;
25615;SDS011;13482;48.234;13.006;2023-08-31T09:29:10;5.70;;;1.00;;
25615;SDS011;13482;48.234;13.006;2023-08-31T09:31:40;1.50;;;0.90;;
25615;SDS011;13482;48.234;13.006;2023-08-31T09:34:17;1.40;;;0.98;;
25615;SDS011;13482;48.234;13.006;2023-08-31T09:39:14;1.25;;;0.70;;
25615;SDS011;13482;48.234;13.006;2023-08-31T09:41:54;1.38;;;0.70;;
25615;SDS011;13482;48.234;13.006;2023-08-31T09:44:22;1.85;;;0.82;;
25615;SDS011;13482;48.234;13.006;2023-08-31T09:46:50;1.75;;;0.80;;
25615;SDS011;13482;48.234;13.006;2023-08-31T09:49:19;2.58;;;0.77;;
25615;SDS011;13482;48.234;13.006;2023-08-31T09:51:48;1.42;;;1.00;;
25615;SDS011;13482;48.234;13.006;2023-08-31T09:54:18;1.50;;;0.82;;
25615;SDS011;13482;48.234;13.006;2023-08-31T09:56:49;1.30;;;0.82;;
25615;SDS011;13482;48.234;13.006;2023-08-31T09:59:18;1.75;;;0.93;;
25615;SDS011;13482;48.234;13.006;2023-08-31T10:01:46;1.67;;;1.00;;
25615;SDS011;13482;48.234;13.006;2023-08-31T10:04:14;2.20;;;0.98;;
25615;SDS011;13482;48.234;13.006;2023-08-31T10:06:43;1.77;;;0.93;;
25615;SDS011;13482;48.234;13.006;2023-08-31T10:09:11;2.15;;;1.00;;
25615;SDS011;13482;48.234;13.006;2023-08-31T10:11:41;1.73;;;0.88;;
25615;SDS011;13482;48.234;13.006;2023-08-31T10:14:10;2.15;;;1.10;;
25615;SDS011;13482;48.234;13.006;2023-08-31T10:16:39;2.33;;;1.00;;
25615;SDS011;13482;48.234;13.006;2023-08-31T10:19:07;1.85;;;1.00;;
25615;SDS011;13482;48.234;13.006;2023-08-31T10:21:35;1.33;;;0.90;;
25615;SDS011;13482;48.234;13.006;2023-08-31T10:24:04;1.85;;;0.93;;
25615;SDS011;13482;48.234;13.006;2023-08-31T10:26:33;1.48;;;0.90;;
25615;SDS011;13482;48.234;13.006;2023-08-31T10:29:00;1.80;;;1.00;;
25615;SDS011;13482;48.234;13.006;2023-08-31T10:31:32;1.92;;;0.98;;
25615;SDS011;13482;48.234;13.006;2023-08-31T10:34:05;1.83;;;0.98;;
25615;SDS011;13482;48.234;13.006;2023-08-31T10:36:38;1.40;;;0.95;;
25615;SDS011;13482;48.234;13.006;2023-08-31T10:39:20;1.88;;;0.98;;
25615;SDS011;13482;48.234;13.006;2023-08-31T10:41:54;1.95;;;1.00;;
25615;SDS011;13482;48.234;13.006;2023-08-31T10:44:27;1.90;;;1.00;;
25615;SDS011;13482;48.234;13.006;2023-08-31T10:47:02;3.30;;;1.10;;
25615;SDS011;13482;48.234;13.006;2023-08-31T10:49:31;2.42;;;1.05;;
25615;SDS011;13482;48.234;13.006;2023-08-31T10:52:15;1.85;;;1.00;;
25615;SDS011;13482;48.234;13.006;2023-08-31T10:54:51;1.17;;;0.90;;
25615;SDS011;13482;48.234;13.006;2023-08-31T10:57:31;1.30;;;0.80;;
25615;SDS011;13482;48.234;13.006;2023-08-31T11:00:02;1.98;;;1.00;;
25615;SDS011;13482;48.234;13.006;2023-08-31T11:02:35;1.80;;;0.95;;
25615;SDS011;13482;48.234;13.006;2023-08-31T11:07:38;1.05;;;0.68;;
25615;SDS011;13482;48.234;13.006;2023-08-31T11:10:15;2.45;;;0.75;;
25615;SDS011;13482;48.234;13.006;2023-08-31T11:12:48;1.67;;;0.93;;
25615;SDS011;13482;48.234;13.006;2023-08-31T11:15:18;1.77;;;0.88;;
25615;SDS011;13482;48.234;13.006;2023-08-31T11:17:49;1.40;;;0.70;;
25615;SDS011;13482;48.234;13.006;2023-08-31T11:20:19;1.65;;;0.80;;
25615;SDS011;13482;48.234;13.006;2023-08-31T11:22:52;1.63;;;0.80;;
25615;SDS011;13482;48.234;13.006;2023-08-31T11:25:20;1.30;;;0.73;;
25615;SDS011;13482;48.234;13.006;2023-08-31T11:28:02;1.33;;;0.80;;
25615;SDS011;13482;48.234;13.006;2023-08-31T11:30:32;1.33;;;0.70;;
25615;SDS011;13482;48.234;13.006;2023-08-31T11:33:10;1.77;;;1.00;;
25615;SDS011;13482;48.234;13.006;2023-08-31T11:35:41;1.40;;;0.77;;
25615;SDS011;13482;48.234;13.006;2023-08-31T11:38:11;1.58;;;0.90;;
25615;SDS011;13482;48.234;13.006;2023-08-31T11:40:39;1.55;;;0.70;;
25615;SDS011;13482;48.234;13.006;2023-08-31T11:43:07;1.55;;;0.90;;
25615;SDS011;13482;48.234;13.006;2023-08-31T11:45:36;1.50;;;0.80;;
25615;SDS011;13482;48.234;13.006;2023-08-31T11:48:05;1.73;;;0.90;;
25615;SDS011;13482;48.234;13.006;2023-08-31T11:50:33;1.40;;;0.68;;
25615;SDS011;13482;48.234;13.006;2023-08-31T11:53:01;1.50;;;0.68;;
25615;SDS011;13482;48.234;13.006;2023-08-31T11:55:29;1.20;;;0.80;;
25615;SDS011;13482;48.234;13.006;2023-08-31T11:57:59;1.05;;;0.63;;
25615;SDS011;13482;48.234;13.006;2023-08-31T12:00:27;1.75;;;0.88;;
25615;SDS011;13482;48.234;13.006;2023-08-31T12:05:44;1.38;;;0.70;;
25615;SDS011;13482;48.234;13.006;2023-08-31T12:08:13;1.70;;;0.88;;
25615;SDS011;13482;48.234;13.006;2023-08-31T12:10:42;2.47;;;0.90;;
25615;SDS011;13482;48.234;13.006;2023-08-31T12:13:11;1.35;;;0.75;;
25615;SDS011;13482;48.234;13.006;2023-08-31T12:15:40;1.48;;;0.70;;
25615;SDS011;13482;48.234;13.006;2023-08-31T12:18:08;1.15;;;0.68;;
25615;SDS011;13482;48.234;13.006;2023-08-31T12:20:47;1.60;;;0.90;;
25615;SDS011;13482;48.234;13.006;2023-08-31T12:23:18;1.20;;;0.70;;
25615;SDS011;13482;48.234;13.006;2023-08-31T12:25:49;1.88;;;0.80;;
25615;SDS011;13482;48.234;13.006;2023-08-31T12:28:19;2.78;;;1.05;;
25615;SDS011;13482;48.234;13.006;2023-08-31T12:30:49;1.63;;;0.70;;
25615;SDS011;13482;48.234;13.006;2023-08-31T12:33:23;1.50;;;0.90;;
25615;SDS011;13482;48.234;13.006;2023-08-31T12:35:52;2.20;;;0.82;;
25615;SDS011;13482;48.234;13.006;2023-08-31T12:38:19;2.13;;;0.82;;
25615;SDS011;13482;48.234;13.006;2023-08-31T12:40:47;2.75;;;0.77;;
25615;SDS011;13482;48.234;13.006;2023-08-31T12:43:15;2.70;;;0.95;;
25615;SDS011;13482;48.234;13.006;2023-08-31T12:45:45;1.70;;;0.77;;
25615;SDS011;13482;48.234;13.006;2023-08-31T12:48:12;1.70;;;0.80;;
25615;SDS011;13482;48.234;13.006;2023-08-31T12:50:40;2.15;;;1.15;;
25615;SDS011;13482;48.234;13.006;2023-08-31T12:53:07;1.35;;;0.80;;
25615;SDS011;13482;48.234;13.006;2023-08-31T12:55:35;1.50;;;0.80;;
25615;SDS011;13482;48.234;13.006;2023-08-31T12:58:02;1.40;;;0.80;;
25615;SDS011;13482;48.234;13.006;2023-08-31T13:00:30;1.45;;;0.82;;
25615;SDS011;13482;48.234;13.006;2023-08-31T13:02:57;1.85;;;0.75;;
25615;SDS011;13482;48.234;13.006;2023-08-31T13:05:26;1.40;;;0.80;;
25615;SDS011;13482;48.234;13.006;2023-08-31T13:07:55;1.75;;;1.00;;
25615;SDS011;13482;48.234;13.006;2023-08-31T13:10:23;1.75;;;0.85;;
25615;SDS011;13482;48.234;13.006;2023-08-31T13:12:50;1.85;;;0.90;;
25615;SDS011;13482;48.234;13.006;2023-08-31T13:15:18;0.90;;;0.50;;
25615;SDS011;13482;48.234;13.006;2023-08-31T13:17:45;1.48;;;0.80;;
25615;SDS011;13482;48.234;13.006;2023-08-31T13:20:13;1.55;;;0.73;;
25615;SDS011;13482;48.234;13.006;2023-08-31T13:22:41;1.48;;;0.80;;
25615;SDS011;13482;48.234;13.006;2023-08-31T13:25:09;2.03;;;0.88;;
25615;SDS011;13482;48.234;13.006;2023-08-31T13:27:38;1.40;;;0.80;;
25615;SDS011;13482;48.234;13.006;2023-08-31T13:30:06;0.98;;;0.70;;
25615;SDS011;13482;48.234;13.006;2023-08-31T13:32:35;1.63;;;0.90;;
25615;SDS011;13482;48.234;13.006;2023-08-31T13:35:03;1.63;;;0.77;;
25615;SDS011;13482;48.234;13.006;2023-08-31T13:37:34;1.77;;;0.95;;
25615;SDS011;13482;48.234;13.006;2023-08-31T13:40:01;1.30;;;0.85;;
25615;SDS011;13482;48.234;13.006;2023-08-31T13:42:34;1.45;;;0.80;;
25615;SDS011;13482;48.234;13.006;2023-08-31T13:45:06;1.58;;;0.90;;
25615;SDS011;13482;48.234;13.006;2023-08-31T13:47:34;0.90;;;0.60;;
25615;SDS011;13482;48.234;13.006;2023-08-31T13:50:02;1.60;;;0.70;;
25615;SDS011;13482;48.234;13.006;2023-08-31T13:52:30;1.27;;;0.75;;
25615;SDS011;13482;48.234;13.006;2023-08-31T13:54:58;1.17;;;0.75;;
25615;SDS011;13482;48.234;13.006;2023-08-31T13:57:25;1.30;;;0.70;;
25615;SDS011;13482;48.234;13.006;2023-08-31T13:59:54;1.40;;;0.80;;
25615;SDS011;13482;48.234;13.006;2023-08-31T14:02:21;1.23;;;0.70;;
25615;SDS011;13482;48.234;13.006;2023-08-31T14:04:49;2.65;;;0.90;;
25615;SDS011;13482;48.234;13.006;2023-08-31T14:07:17;2.05;;;0.90;;
25615;SDS011;13482;48.234;13.006;2023-08-31T14:09:44;1.17;;;0.70;;
25615;SDS011;13482;48.234;13.006;2023-08-31T14:12:11;1.40;;;0.90;;
25615;SDS011;13482;48.234;13.006;2023-08-31T14:14:39;1.60;;;0.88;;
25615;SDS011;13482;48.234;13.006;2023-08-31T14:17:08;1.13;;;0.70;;
25615;SDS011;13482;48.234;13.006;2023-08-31T14:19:35;1.25;;;0.80;;
25615;SDS011;13482;48.234;13.006;2023-08-31T14:22:03;1.98;;;0.95;;
25615;SDS011;13482;48.234;13.006;2023-08-31T14:24:31;1.40;;;0.85;;
25615;SDS011;13482;48.234;13.006;2023-08-31T14:26:58;1.20;;;0.80;;
25615;SDS011;13482;48.234;13.006;2023-08-31T14:29:25;1.50;;;0.75;;
25615;SDS011;13482;48.234;13.006;2023-08-31T14:31:53;0.60;;;0.45;;
25615;SDS011;13482;48.234;13.006;2023-08-31T14:34:22;1.50;;;0.73;;
25615;SDS011;13482;48.234;13.006;2023-08-31T14:36:51;1.45;;;0.98;;
25615;SDS011;13482;48.234;13.006;2023-08-31T14:39:20;1.40;;;0.70;;
25615;SDS011;13482;48.234;13.006;2023-08-31T14:41:48;1.48;;;0.85;;
25615;SDS011;13482;48.234;13.006;2023-08-31T14:44:15;1.85;;;0.80;;
25615;SDS011;13482;48.234;13.006;2023-08-31T14:46:43;1.52;;;0.73;;
25615;SDS011;13482;48.234;13.006;2023-08-31T14:49:11;1.50;;;0.80;;
25615;SDS011;13482;48.234;13.006;2023-08-31T14:51:38;1.60;;;0.77;;
25615;SDS011;13482;48.234;13.006;2023-08-31T14:54:06;1.05;;;0.70;;
25615;SDS011;13482;48.234;13.006;2023-08-31T14:56:33;1.65;;;0.90;;
25615;SDS011;13482;48.234;13.006;2023-08-31T14:59:01;1.02;;;0.70;;
25615;SDS011;13482;48.234;13.006;2023-08-31T15:01:28;1.30;;;0.75;;
25615;SDS011;13482;48.234;13.006;2023-08-31T15:03:56;2.10;;;0.70;;
25615;SDS011;13482;48.234;13.006;2023-08-31T15:06:23;1.15;;;0.75;;
25615;SDS011;13482;48.234;13.006;2023-08-31T15:08:50;1.45;;;0.80;;
25615;SDS011;13482;48.234;13.006;2023-08-31T15:11:18;1.77;;;0.98;;